sensor_id;sensor_type;location;lat;lon;timestamp;P1;durP1;ratioP1;P2;durP2;ratioP2
64653;SDS011;51065;48.884;12.598;2022-09-24T00:01:18;8.90;;;3.38;;
64653;SDS011;51065;48.884;12.598;2022-09-24T00:03:58;8.02;;;3.58;;
64653;SDS011;51065;48.884;12.598;2022-09-24T00:06:26;9.93;;;3.83;;
64653;SDS011;51065;48.884;12.598;2022-09-24T00:08:54;5.78;;;3.20;;
64653;SDS011;51065;48.884;12.598;2022-09-24T00:11:22;12.32;;;3.83;;
64653;SDS011;51065;48.884;12.598;2022-09-24T00:13:50;9.15;;;4.00;;
64653;SDS011;51065;48.884;12.598;2022-09-24T00:16:17;8.05;;;3.65;;
64653;SDS011;51065;48.884;12.598;2022-09-24T00:18:44;7.97;;;3.58;;
64653;SDS011;51065;48.884;12.598;2022-09-24T00:21:20;6.15;;;3.50;;
64653;SDS011;51065;48.884;12.598;2022-09-24T00:26:21;9.30;;;4.13;;
64653;SDS011;51065;48.884;12.598;2022-09-24T00:29:05;7.47;;;3.50;;
64653;SDS011;51065;48.884;12.598;2022-09-24T00:31:32;9.95;;;3.67;;
64653;SDS011;51065;48.884;12.598;2022-09-24T00:33:57;10.68;;;3.85;;
64653;SDS011;51065;48.884;12.598;2022-09-24T00:36:24;7.72;;;3.65;;
64653;SDS011;51065;48.884;12.598;2022-09-24T00:38:52;8.68;;;3.80;;
64653;SDS011;51065;48.884;12.598;2022-09-24T00:41:20;9.48;;;3.83;;
64653;SDS011;51065;48.884;12.598;2022-09-24T00:43:47;8.30;;;3.85;;
64653;SDS011;51065;48.884;12.598;2022-09-24T00:49:18;10.07;;;4.10;;
64653;SDS011;51065;48.884;12.598;2022-09-24T00:51:46;9.48;;;3.88;;
64653;SDS011;51065;48.884;12.598;2022-09-24T00:54:23;10.55;;;4.03;;
64653;SDS011;51065;48.884;12.598;2022-09-24T00:56:52;8.27;;;3.47;;
64653;SDS011;51065;48.884;12.598;2022-09-24T00:59:19;8.93;;;4.25;;
64653;SDS011;51065;48.884;12.598;2022-09-24T01:01:48;9.75;;;3.92;;
64653;SDS011;51065;48.884;12.598;2022-09-24T01:04:15;10.35;;;4.28;;
64653;SDS011;51065;48.884;12.598;2022-09-24T01:06:45;9.80;;;4.18;;
64653;SDS011;51065;48.884;12.598;2022-09-24T01:09:12;7.85;;;3.53;;
64653;SDS011;51065;48.884;12.598;2022-09-24T01:19:30;8.68;;;4.20;;
64653;SDS011;51065;48.884;12.598;2022-09-24T01:30:50;9.38;;;4.25;;
64653;SDS011;51065;48.884;12.598;2022-09-24T01:33:22;8.88;;;3.90;;
64653;SDS011;51065;48.884;12.598;2022-09-24T01:35:50;9.65;;;4.20;;
64653;SDS011;51065;48.884;12.598;2022-09-24T01:38:29;9.23;;;3.85;;
64653;SDS011;51065;48.884;12.598;2022-09-24T01:41:02;8.82;;;4.07;;
64653;SDS011;51065;48.884;12.598;2022-09-24T01:43:28;9.57;;;4.03;;
64653;SDS011;51065;48.884;12.598;2022-09-24T01:45:55;12.48;;;4.35;;
64653;SDS011;51065;48.884;12.598;2022-09-24T01:48:24;8.15;;;3.92;;
64653;SDS011;51065;48.884;12.598;2022-09-24T01:50:53;8.52;;;3.67;;
64653;SDS011;51065;48.884;12.598;2022-09-24T01:53:25;9.07;;;3.60;;
64653;SDS011;51065;48.884;12.598;2022-09-24T01:55:59;8.82;;;3.70;;
64653;SDS011;51065;48.884;12.598;2022-09-24T01:58:42;10.35;;;4.03;;
64653;SDS011;51065;48.884;12.598;2022-09-24T02:01:14;9.10;;;3.50;;
64653;SDS011;51065;48.884;12.598;2022-09-24T02:03:46;8.35;;;3.85;;
64653;SDS011;51065;48.884;12.598;2022-09-24T02:06:19;6.55;;;3.70;;
64653;SDS011;51065;48.884;12.598;2022-09-24T02:09:27;9.85;;;4.00;;
64653;SDS011;51065;48.884;12.598;2022-09-24T02:11:53;8.82;;;3.90;;
64653;SDS011;51065;48.884;12.598;2022-09-24T02:14:20;9.15;;;3.80;;
64653;SDS011;51065;48.884;12.598;2022-09-24T02:16:47;11.32;;;4.53;;
64653;SDS011;51065;48.884;12.598;2022-09-24T02:19:15;7.82;;;3.78;;
64653;SDS011;51065;48.884;12.598;2022-09-24T02:21:45;9.27;;;4.18;;
64653;SDS011;51065;48.884;12.598;2022-09-24T02:24:13;8.93;;;4.25;;
64653;SDS011;51065;48.884;12.598;2022-09-24T02:26:53;10.57;;;4.18;;
64653;SDS011;51065;48.884;12.598;2022-09-24T02:29:19;11.98;;;4.18;;
64653;SDS011;51065;48.884;12.598;2022-09-24T02:31:45;9.98;;;4.20;;
64653;SDS011;51065;48.884;12.598;2022-09-24T02:34:17;8.88;;;4.13;;
64653;SDS011;51065;48.884;12.598;2022-09-24T02:36:50;9.05;;;3.90;;
64653;SDS011;51065;48.884;12.598;2022-09-24T02:39:18;10.18;;;4.05;;
64653;SDS011;51065;48.884;12.598;2022-09-24T02:41:44;8.70;;;3.83;;
64653;SDS011;51065;48.884;12.598;2022-09-24T02:44:13;8.15;;;3.50;;
64653;SDS011;51065;48.884;12.598;2022-09-24T02:46:39;9.98;;;3.42;;
64653;SDS011;51065;48.884;12.598;2022-09-24T02:49:05;8.80;;;3.88;;
64653;SDS011;51065;48.884;12.598;2022-09-24T02:51:31;8.30;;;3.70;;
64653;SDS011;51065;48.884;12.598;2022-09-24T02:53:57;9.82;;;3.78;;
64653;SDS011;51065;48.884;12.598;2022-09-24T02:56:22;8.00;;;3.97;;
64653;SDS011;51065;48.884;12.598;2022-09-24T02:58:48;10.68;;;3.80;;
64653;SDS011;51065;48.884;12.598;2022-09-24T03:01:13;10.00;;;3.67;;
64653;SDS011;51065;48.884;12.598;2022-09-24T03:03:39;7.63;;;3.50;;
64653;SDS011;51065;48.884;12.598;2022-09-24T03:06:05;7.03;;;3.55;;
64653;SDS011;51065;48.884;12.598;2022-09-24T03:08:30;11.50;;;3.80;;
64653;SDS011;51065;48.884;12.598;2022-09-24T03:10:57;8.38;;;3.45;;
64653;SDS011;51065;48.884;12.598;2022-09-24T03:13:22;11.15;;;3.92;;
64653;SDS011;51065;48.884;12.598;2022-09-24T03:15:48;11.30;;;4.03;;
64653;SDS011;51065;48.884;12.598;2022-09-24T03:18:13;9.43;;;3.88;;
64653;SDS011;51065;48.884;12.598;2022-09-24T03:20:39;10.32;;;4.07;;
64653;SDS011;51065;48.884;12.598;2022-09-24T03:23:05;10.63;;;4.70;;
64653;SDS011;51065;48.884;12.598;2022-09-24T03:25:31;11.57;;;4.60;;
64653;SDS011;51065;48.884;12.598;2022-09-24T03:27:56;9.85;;;4.13;;
64653;SDS011;51065;48.884;12.598;2022-09-24T03:30:22;8.73;;;4.38;;
64653;SDS011;51065;48.884;12.598;2022-09-24T03:33:06;8.20;;;3.67;;
64653;SDS011;51065;48.884;12.598;2022-09-24T03:35:31;8.07;;;3.90;;
64653;SDS011;51065;48.884;12.598;2022-09-24T03:37:57;7.90;;;3.80;;
64653;SDS011;51065;48.884;12.598;2022-09-24T03:40:22;7.43;;;3.75;;
64653;SDS011;51065;48.884;12.598;2022-09-24T03:42:49;8.27;;;4.00;;
64653;SDS011;51065;48.884;12.598;2022-09-24T03:45:14;12.40;;;4.50;;
64653;SDS011;51065;48.884;12.598;2022-09-24T03:47:40;9.57;;;3.92;;
64653;SDS011;51065;48.884;12.598;2022-09-24T03:50:06;12.05;;;4.32;;
64653;SDS011;51065;48.884;12.598;2022-09-24T03:52:35;11.45;;;4.20;;
64653;SDS011;51065;48.884;12.598;2022-09-24T03:55:01;9.13;;;4.03;;
64653;SDS011;51065;48.884;12.598;2022-09-24T03:57:26;7.75;;;3.95;;
64653;SDS011;51065;48.884;12.598;2022-09-24T03:59:52;9.40;;;4.18;;
64653;SDS011;51065;48.884;12.598;2022-09-24T04:02:18;7.20;;;3.42;;
64653;SDS011;51065;48.884;12.598;2022-09-24T04:04:43;7.97;;;3.83;;
64653;SDS011;51065;48.884;12.598;2022-09-24T04:07:09;8.50;;;4.10;;
64653;SDS011;51065;48.884;12.598;2022-09-24T04:09:34;7.30;;;3.33;;
64653;SDS011;51065;48.884;12.598;2022-09-24T04:12:00;7.63;;;3.38;;
64653;SDS011;51065;48.884;12.598;2022-09-24T04:14:26;8.25;;;4.28;;
64653;SDS011;51065;48.884;12.598;2022-09-24T04:16:51;8.75;;;4.05;;
64653;SDS011;51065;48.884;12.598;2022-09-24T04:19:17;7.80;;;3.70;;
64653;SDS011;51065;48.884;12.598;2022-09-24T04:21:43;8.95;;;4.18;;
64653;SDS011;51065;48.884;12.598;2022-09-24T04:24:09;8.35;;;3.97;;
64653;SDS011;51065;48.884;12.598;2022-09-24T04:26:35;7.97;;;4.10;;
64653;SDS011;51065;48.884;12.598;2022-09-24T04:29:01;10.60;;;4.05;;
64653;SDS011;51065;48.884;12.598;2022-09-24T04:31:26;8.73;;;4.07;;
64653;SDS011;51065;48.884;12.598;2022-09-24T04:33:52;9.05;;;3.95;;
64653;SDS011;51065;48.884;12.598;2022-09-24T04:36:18;9.18;;;4.38;;
64653;SDS011;51065;48.884;12.598;2022-09-24T04:38:44;9.32;;;3.72;;
64653;SDS011;51065;48.884;12.598;2022-09-24T04:41:12;7.38;;;3.65;;
64653;SDS011;51065;48.884;12.598;2022-09-24T04:43:40;8.80;;;4.00;;
64653;SDS011;51065;48.884;12.598;2022-09-24T04:46:07;9.90;;;4.32;;
64653;SDS011;51065;48.884;12.598;2022-09-24T04:48:33;6.72;;;3.63;;
64653;SDS011;51065;48.884;12.598;2022-09-24T04:51:02;9.68;;;4.10;;
64653;SDS011;51065;48.884;12.598;2022-09-24T04:53:34;13.50;;;6.88;;
64653;SDS011;51065;48.884;12.598;2022-09-24T04:56:02;11.40;;;5.95;;
64653;SDS011;51065;48.884;12.598;2022-09-24T04:58:29;11.73;;;4.40;;
64653;SDS011;51065;48.884;12.598;2022-09-24T05:00:54;11.57;;;5.28;;
64653;SDS011;51065;48.884;12.598;2022-09-24T05:03:20;10.70;;;4.50;;
64653;SDS011;51065;48.884;12.598;2022-09-24T05:05:46;35.92;;;22.67;;
64653;SDS011;51065;48.884;12.598;2022-09-24T05:08:11;20.75;;;10.82;;
64653;SDS011;51065;48.884;12.598;2022-09-24T05:10:37;16.83;;;8.75;;
64653;SDS011;51065;48.884;12.598;2022-09-24T05:13:04;13.45;;;6.88;;
64653;SDS011;51065;48.884;12.598;2022-09-24T05:15:30;8.90;;;4.43;;
64653;SDS011;51065;48.884;12.598;2022-09-24T05:17:56;11.13;;;5.10;;
64653;SDS011;51065;48.884;12.598;2022-09-24T05:20:22;13.48;;;5.15;;
64653;SDS011;51065;48.884;12.598;2022-09-24T05:22:48;14.82;;;6.80;;
64653;SDS011;51065;48.884;12.598;2022-09-24T05:25:14;16.98;;;7.18;;
64653;SDS011;51065;48.884;12.598;2022-09-24T05:27:43;14.95;;;5.50;;
64653;SDS011;51065;48.884;12.598;2022-09-24T05:30:12;11.75;;;4.75;;
64653;SDS011;51065;48.884;12.598;2022-09-24T05:32:38;12.10;;;4.90;;
64653;SDS011;51065;48.884;12.598;2022-09-24T05:35:04;8.43;;;4.00;;
64653;SDS011;51065;48.884;12.598;2022-09-24T05:37:32;10.85;;;4.30;;
64653;SDS011;51065;48.884;12.598;2022-09-24T05:39:58;8.65;;;4.07;;
64653;SDS011;51065;48.884;12.598;2022-09-24T05:42:44;8.43;;;4.07;;
64653;SDS011;51065;48.884;12.598;2022-09-24T05:45:10;10.45;;;4.00;;
64653;SDS011;51065;48.884;12.598;2022-09-24T05:47:36;11.40;;;3.88;;
64653;SDS011;51065;48.884;12.598;2022-09-24T05:50:01;8.63;;;4.20;;
64653;SDS011;51065;48.884;12.598;2022-09-24T05:52:27;11.52;;;4.85;;
64653;SDS011;51065;48.884;12.598;2022-09-24T05:54:53;9.85;;;3.97;;
64653;SDS011;51065;48.884;12.598;2022-09-24T05:57:18;12.32;;;4.07;;
64653;SDS011;51065;48.884;12.598;2022-09-24T05:59:44;14.05;;;5.32;;
64653;SDS011;51065;48.884;12.598;2022-09-24T06:02:09;92.53;;;50.80;;
64653;SDS011;51065;48.884;12.598;2022-09-24T06:04:37;95.30;;;50.97;;
64653;SDS011;51065;48.884;12.598;2022-09-24T06:07:03;20.75;;;11.63;;
64653;SDS011;51065;48.884;12.598;2022-09-24T06:09:28;17.02;;;8.13;;
64653;SDS011;51065;48.884;12.598;2022-09-24T06:11:54;22.58;;;13.40;;
64653;SDS011;51065;48.884;12.598;2022-09-24T06:14:20;10.88;;;4.53;;
64653;SDS011;51065;48.884;12.598;2022-09-24T06:16:46;9.88;;;5.00;;
64653;SDS011;51065;48.884;12.598;2022-09-24T06:19:11;10.88;;;4.30;;
64653;SDS011;51065;48.884;12.598;2022-09-24T06:21:37;7.90;;;4.05;;
64653;SDS011;51065;48.884;12.598;2022-09-24T06:24:02;8.65;;;4.20;;
64653;SDS011;51065;48.884;12.598;2022-09-24T06:26:28;9.93;;;4.55;;
64653;SDS011;51065;48.884;12.598;2022-09-24T06:28:54;8.70;;;4.50;;
64653;SDS011;51065;48.884;12.598;2022-09-24T06:31:20;9.18;;;4.20;;
64653;SDS011;51065;48.884;12.598;2022-09-24T06:33:46;10.93;;;4.63;;
64653;SDS011;51065;48.884;12.598;2022-09-24T06:36:11;9.50;;;4.53;;
64653;SDS011;51065;48.884;12.598;2022-09-24T06:38:37;10.73;;;4.43;;
64653;SDS011;51065;48.884;12.598;2022-09-24T06:41:05;13.23;;;4.78;;
64653;SDS011;51065;48.884;12.598;2022-09-24T06:43:32;40.83;;;20.83;;
64653;SDS011;51065;48.884;12.598;2022-09-24T06:45:58;27.58;;;12.60;;
64653;SDS011;51065;48.884;12.598;2022-09-24T06:48:25;22.77;;;10.43;;
64653;SDS011;51065;48.884;12.598;2022-09-24T06:50:51;13.90;;;5.85;;
64653;SDS011;51065;48.884;12.598;2022-09-24T06:53:18;17.42;;;9.02;;
64653;SDS011;51065;48.884;12.598;2022-09-24T06:55:44;16.75;;;9.25;;
64653;SDS011;51065;48.884;12.598;2022-09-24T06:58:19;9.30;;;5.07;;
64653;SDS011;51065;48.884;12.598;2022-09-24T07:00:55;12.00;;;5.88;;
64653;SDS011;51065;48.884;12.598;2022-09-24T07:03:22;10.73;;;4.70;;
64653;SDS011;51065;48.884;12.598;2022-09-24T07:05:49;8.80;;;4.00;;
64653;SDS011;51065;48.884;12.598;2022-09-24T07:08:15;10.77;;;4.60;;
64653;SDS011;51065;48.884;12.598;2022-09-24T07:10:42;8.52;;;4.20;;
64653;SDS011;51065;48.884;12.598;2022-09-24T07:13:08;7.20;;;4.25;;
64653;SDS011;51065;48.884;12.598;2022-09-24T07:15:35;8.25;;;3.75;;
64653;SDS011;51065;48.884;12.598;2022-09-24T07:18:00;10.40;;;4.50;;
64653;SDS011;51065;48.884;12.598;2022-09-24T07:20:26;9.18;;;4.30;;
64653;SDS011;51065;48.884;12.598;2022-09-24T07:22:52;10.35;;;4.90;;
64653;SDS011;51065;48.884;12.598;2022-09-24T07:25:19;8.95;;;4.53;;
64653;SDS011;51065;48.884;12.598;2022-09-24T07:27:44;9.90;;;4.38;;
64653;SDS011;51065;48.884;12.598;2022-09-24T07:30:10;9.73;;;4.70;;
64653;SDS011;51065;48.884;12.598;2022-09-24T07:32:36;10.40;;;4.72;;
64653;SDS011;51065;48.884;12.598;2022-09-24T07:35:02;10.40;;;4.75;;
64653;SDS011;51065;48.884;12.598;2022-09-24T07:37:28;10.18;;;4.40;;
64653;SDS011;51065;48.884;12.598;2022-09-24T07:39:57;10.93;;;4.57;;
64653;SDS011;51065;48.884;12.598;2022-09-24T07:42:23;11.18;;;4.70;;
64653;SDS011;51065;48.884;12.598;2022-09-24T07:44:50;10.77;;;4.28;;
64653;SDS011;51065;48.884;12.598;2022-09-24T07:47:15;9.32;;;4.72;;
64653;SDS011;51065;48.884;12.598;2022-09-24T07:49:41;9.70;;;4.68;;
64653;SDS011;51065;48.884;12.598;2022-09-24T07:52:08;10.57;;;4.63;;
64653;SDS011;51065;48.884;12.598;2022-09-24T07:54:34;9.00;;;4.50;;
64653;SDS011;51065;48.884;12.598;2022-09-24T07:57:00;11.55;;;5.10;;
64653;SDS011;51065;48.884;12.598;2022-09-24T07:59:26;9.60;;;4.97;;
64653;SDS011;51065;48.884;12.598;2022-09-24T08:01:52;9.40;;;4.57;;
64653;SDS011;51065;48.884;12.598;2022-09-24T08:04:18;10.00;;;5.03;;
64653;SDS011;51065;48.884;12.598;2022-09-24T08:06:44;10.52;;;4.82;;
64653;SDS011;51065;48.884;12.598;2022-09-24T08:09:09;12.00;;;5.47;;
64653;SDS011;51065;48.884;12.598;2022-09-24T08:11:35;14.80;;;5.25;;
64653;SDS011;51065;48.884;12.598;2022-09-24T08:14:01;9.63;;;4.88;;
64653;SDS011;51065;48.884;12.598;2022-09-24T08:16:27;11.45;;;5.13;;
64653;SDS011;51065;48.884;12.598;2022-09-24T08:18:53;12.63;;;5.45;;
64653;SDS011;51065;48.884;12.598;2022-09-24T08:21:19;12.85;;;5.70;;
64653;SDS011;51065;48.884;12.598;2022-09-24T08:23:45;14.48;;;6.30;;
64653;SDS011;51065;48.884;12.598;2022-09-24T08:26:10;13.00;;;6.00;;
64653;SDS011;51065;48.884;12.598;2022-09-24T08:28:37;16.48;;;6.55;;
64653;SDS011;51065;48.884;12.598;2022-09-24T08:31:04;13.65;;;5.80;;
64653;SDS011;51065;48.884;12.598;2022-09-24T08:33:35;12.85;;;5.22;;
64653;SDS011;51065;48.884;12.598;2022-09-24T08:36:02;10.98;;;5.07;;
64653;SDS011;51065;48.884;12.598;2022-09-24T08:38:30;13.77;;;5.60;;
64653;SDS011;51065;48.884;12.598;2022-09-24T08:43:47;13.35;;;5.53;;
64653;SDS011;51065;48.884;12.598;2022-09-24T08:46:32;12.65;;;5.90;;
64653;SDS011;51065;48.884;12.598;2022-09-24T08:49:44;12.80;;;5.75;;
64653;SDS011;51065;48.884;12.598;2022-09-24T08:54:59;11.55;;;5.50;;
64653;SDS011;51065;48.884;12.598;2022-09-24T08:57:28;13.57;;;5.47;;
64653;SDS011;51065;48.884;12.598;2022-09-24T09:00:01;13.65;;;5.63;;
64653;SDS011;51065;48.884;12.598;2022-09-24T09:02:36;13.60;;;5.88;;
64653;SDS011;51065;48.884;12.598;2022-09-24T09:08:01;11.30;;;6.20;;
64653;SDS011;51065;48.884;12.598;2022-09-24T09:10:37;11.50;;;4.93;;
64653;SDS011;51065;48.884;12.598;2022-09-24T09:13:10;10.52;;;5.15;;
64653;SDS011;51065;48.884;12.598;2022-09-24T09:15:53;12.40;;;5.47;;
64653;SDS011;51065;48.884;12.598;2022-09-24T09:18:41;12.20;;;5.43;;
64653;SDS011;51065;48.884;12.598;2022-09-24T09:21:17;11.45;;;5.20;;
64653;SDS011;51065;48.884;12.598;2022-09-24T09:23:55;12.77;;;5.30;;
64653;SDS011;51065;48.884;12.598;2022-09-24T09:26:23;12.93;;;5.75;;
64653;SDS011;51065;48.884;12.598;2022-09-24T09:28:49;13.13;;;5.22;;
64653;SDS011;51065;48.884;12.598;2022-09-24T09:34:12;12.70;;;5.63;;
64653;SDS011;51065;48.884;12.598;2022-09-24T09:37:12;12.70;;;5.90;;
64653;SDS011;51065;48.884;12.598;2022-09-24T09:42:41;12.93;;;5.32;;
64653;SDS011;51065;48.884;12.598;2022-09-24T09:45:25;10.25;;;5.20;;
64653;SDS011;51065;48.884;12.598;2022-09-24T09:48:12;11.75;;;5.25;;
64653;SDS011;51065;48.884;12.598;2022-09-24T09:50:44;12.77;;;5.22;;
64653;SDS011;51065;48.884;12.598;2022-09-24T09:55:51;10.05;;;4.53;;
64653;SDS011;51065;48.884;12.598;2022-09-24T09:58:28;11.25;;;5.22;;
64653;SDS011;51065;48.884;12.598;2022-09-24T10:01:12;11.23;;;4.70;;
64653;SDS011;51065;48.884;12.598;2022-09-24T10:06:08;12.27;;;5.18;;
64653;SDS011;51065;48.884;12.598;2022-09-24T10:08:36;9.93;;;4.30;;
64653;SDS011;51065;48.884;12.598;2022-09-24T10:11:02;10.32;;;4.95;;
64653;SDS011;51065;48.884;12.598;2022-09-24T10:13:28;10.98;;;4.60;;
64653;SDS011;51065;48.884;12.598;2022-09-24T10:16:03;11.18;;;4.85;;
64653;SDS011;51065;48.884;12.598;2022-09-24T10:18:34;9.77;;;5.13;;
64653;SDS011;51065;48.884;12.598;2022-09-24T10:21:04;10.63;;;5.13;;
64653;SDS011;51065;48.884;12.598;2022-09-24T10:23:36;11.50;;;5.10;;
64653;SDS011;51065;48.884;12.598;2022-09-24T10:26:05;12.73;;;4.97;;
64653;SDS011;51065;48.884;12.598;2022-09-24T10:28:32;12.85;;;4.65;;
64653;SDS011;51065;48.884;12.598;2022-09-24T10:31:20;9.85;;;4.82;;
64653;SDS011;51065;48.884;12.598;2022-09-24T10:33:48;12.55;;;5.15;;
64653;SDS011;51065;48.884;12.598;2022-09-24T10:36:20;9.45;;;5.00;;
64653;SDS011;51065;48.884;12.598;2022-09-24T10:38:47;11.70;;;5.05;;
64653;SDS011;51065;48.884;12.598;2022-09-24T10:41:14;10.75;;;5.00;;
64653;SDS011;51065;48.884;12.598;2022-09-24T10:43:51;8.80;;;4.60;;
64653;SDS011;51065;48.884;12.598;2022-09-24T10:54:41;8.85;;;4.35;;
64653;SDS011;51065;48.884;12.598;2022-09-24T10:57:44;9.82;;;4.43;;
64653;SDS011;51065;48.884;12.598;2022-09-24T11:00:17;10.63;;;4.50;;
64653;SDS011;51065;48.884;12.598;2022-09-24T11:05:44;9.40;;;4.50;;
64653;SDS011;51065;48.884;12.598;2022-09-24T11:16:47;13.52;;;5.15;;
64653;SDS011;51065;48.884;12.598;2022-09-24T11:22:34;10.20;;;4.80;;
64653;SDS011;51065;48.884;12.598;2022-09-24T11:25:42;11.98;;;5.20;;
64653;SDS011;51065;48.884;12.598;2022-09-24T11:28:34;11.55;;;5.05;;
64653;SDS011;51065;48.884;12.598;2022-09-24T11:36:35;12.98;;;5.28;;
64653;SDS011;51065;48.884;12.598;2022-09-24T11:39:38;11.60;;;5.35;;
64653;SDS011;51065;48.884;12.598;2022-09-24T11:42:26;13.38;;;5.40;;
64653;SDS011;51065;48.884;12.598;2022-09-24T11:50:30;14.15;;;6.07;;
64653;SDS011;51065;48.884;12.598;2022-09-24T11:53:32;14.00;;;5.93;;
64653;SDS011;51065;48.884;12.598;2022-09-24T11:56:09;13.73;;;5.68;;
64653;SDS011;51065;48.884;12.598;2022-09-24T11:58:43;13.10;;;6.07;;
64653;SDS011;51065;48.884;12.598;2022-09-24T12:01:16;12.40;;;5.47;;
64653;SDS011;51065;48.884;12.598;2022-09-24T12:06:32;11.38;;;5.55;;
64653;SDS011;51065;48.884;12.598;2022-09-24T12:09:35;10.90;;;5.43;;
64653;SDS011;51065;48.884;12.598;2022-09-24T12:14:55;15.70;;;6.22;;
64653;SDS011;51065;48.884;12.598;2022-09-24T12:22:47;14.77;;;7.30;;
64653;SDS011;51065;48.884;12.598;2022-09-24T12:25:16;15.05;;;6.97;;
64653;SDS011;51065;48.884;12.598;2022-09-24T12:27:41;14.93;;;6.97;;
64653;SDS011;51065;48.884;12.598;2022-09-24T12:30:27;16.45;;;7.93;;
64653;SDS011;51065;48.884;12.598;2022-09-24T12:46:41;14.18;;;7.38;;
64653;SDS011;51065;48.884;12.598;2022-09-24T12:49:16;14.25;;;7.28;;
64653;SDS011;51065;48.884;12.598;2022-09-24T12:51:42;14.63;;;7.68;;
64653;SDS011;51065;48.884;12.598;2022-09-24T12:56:51;15.02;;;7.03;;
64653;SDS011;51065;48.884;12.598;2022-09-24T12:59:28;18.00;;;8.55;;
64653;SDS011;51065;48.884;12.598;2022-09-24T13:01:53;18.30;;;7.22;;
64653;SDS011;51065;48.884;12.598;2022-09-24T13:04:30;17.90;;;8.43;;
64653;SDS011;51065;48.884;12.598;2022-09-24T13:06:56;16.80;;;7.68;;
64653;SDS011;51065;48.884;12.598;2022-09-24T13:12:02;17.05;;;8.35;;
64653;SDS011;51065;48.884;12.598;2022-09-24T13:14:45;16.15;;;7.57;;
64653;SDS011;51065;48.884;12.598;2022-09-24T13:17:14;16.63;;;8.35;;
64653;SDS011;51065;48.884;12.598;2022-09-24T13:19:41;17.35;;;8.38;;
64653;SDS011;51065;48.884;12.598;2022-09-24T13:22:20;16.25;;;8.15;;
64653;SDS011;51065;48.884;12.598;2022-09-24T13:24:52;16.30;;;7.97;;
64653;SDS011;51065;48.884;12.598;2022-09-24T13:27:39;15.40;;;7.43;;
64653;SDS011;51065;48.884;12.598;2022-09-24T13:32:58;16.70;;;8.07;;
64653;SDS011;51065;48.884;12.598;2022-09-24T13:38:27;15.77;;;7.57;;
64653;SDS011;51065;48.884;12.598;2022-09-24T13:41:21;14.20;;;7.57;;
64653;SDS011;51065;48.884;12.598;2022-09-24T13:50:05;15.02;;;7.90;;
64653;SDS011;51065;48.884;12.598;2022-09-24T13:55:28;16.52;;;8.35;;
64653;SDS011;51065;48.884;12.598;2022-09-24T14:00:57;15.20;;;7.95;;
64653;SDS011;51065;48.884;12.598;2022-09-24T14:05:58;14.35;;;7.45;;
64653;SDS011;51065;48.884;12.598;2022-09-24T14:08:26;18.25;;;7.72;;
64653;SDS011;51065;48.884;12.598;2022-09-24T14:11:04;16.27;;;7.93;;
64653;SDS011;51065;48.884;12.598;2022-09-24T14:13:34;17.27;;;8.32;;
64653;SDS011;51065;48.884;12.598;2022-09-24T14:16:12;16.95;;;7.95;;
64653;SDS011;51065;48.884;12.598;2022-09-24T14:18:39;16.25;;;8.32;;
64653;SDS011;51065;48.884;12.598;2022-09-24T14:21:21;17.20;;;8.88;;
64653;SDS011;51065;48.884;12.598;2022-09-24T14:24:25;15.05;;;8.05;;
64653;SDS011;51065;48.884;12.598;2022-09-24T14:26:48;18.25;;;8.73;;
64653;SDS011;51065;48.884;12.598;2022-09-24T14:29:28;16.08;;;8.32;;
64653;SDS011;51065;48.884;12.598;2022-09-24T14:31:57;18.30;;;8.23;;
64653;SDS011;51065;48.884;12.598;2022-09-24T14:34:26;17.70;;;9.50;;
64653;SDS011;51065;48.884;12.598;2022-09-24T14:37:11;19.80;;;9.45;;
64653;SDS011;51065;48.884;12.598;2022-09-24T14:39:45;16.77;;;8.93;;
64653;SDS011;51065;48.884;12.598;2022-09-24T14:42:24;17.50;;;9.02;;
64653;SDS011;51065;48.884;12.598;2022-09-24T14:45:06;19.98;;;9.48;;
64653;SDS011;51065;48.884;12.598;2022-09-24T14:47:34;18.75;;;9.63;;
64653;SDS011;51065;48.884;12.598;2022-09-24T14:50:00;18.67;;;9.38;;
64653;SDS011;51065;48.884;12.598;2022-09-24T14:52:37;19.83;;;9.27;;
64653;SDS011;51065;48.884;12.598;2022-09-24T14:55:17;21.02;;;10.18;;
64653;SDS011;51065;48.884;12.598;2022-09-24T14:57:45;21.25;;;9.88;;
64653;SDS011;51065;48.884;12.598;2022-09-24T15:00:25;20.60;;;9.60;;
64653;SDS011;51065;48.884;12.598;2022-09-24T15:02:57;19.83;;;9.02;;
64653;SDS011;51065;48.884;12.598;2022-09-24T15:05:26;17.95;;;9.07;;
64653;SDS011;51065;48.884;12.598;2022-09-24T15:08:38;16.48;;;8.98;;
64653;SDS011;51065;48.884;12.598;2022-09-24T15:10:55;18.38;;;9.65;;
64653;SDS011;51065;48.884;12.598;2022-09-24T15:13:23;23.77;;;13.15;;
64653;SDS011;51065;48.884;12.598;2022-09-24T15:18:29;27.83;;;15.30;;
64653;SDS011;51065;48.884;12.598;2022-09-24T15:20:55;25.50;;;13.32;;
64653;SDS011;51065;48.884;12.598;2022-09-24T15:23:22;22.58;;;11.30;;
64653;SDS011;51065;48.884;12.598;2022-09-24T15:25:48;32.92;;;19.17;;
64653;SDS011;51065;48.884;12.598;2022-09-24T15:28:14;57.63;;;34.08;;
64653;SDS011;51065;48.884;12.598;2022-09-24T15:30:39;28.80;;;14.75;;
64653;SDS011;51065;48.884;12.598;2022-09-24T15:33:12;20.63;;;12.05;;
64653;SDS011;51065;48.884;12.598;2022-09-24T15:35:38;21.65;;;10.68;;
64653;SDS011;51065;48.884;12.598;2022-09-24T15:38:16;18.27;;;9.65;;
64653;SDS011;51065;48.884;12.598;2022-09-24T15:40:43;18.92;;;10.07;;
64653;SDS011;51065;48.884;12.598;2022-09-24T15:43:13;24.85;;;12.88;;
64653;SDS011;51065;48.884;12.598;2022-09-24T15:45:43;21.83;;;10.25;;
64653;SDS011;51065;48.884;12.598;2022-09-24T15:48:09;27.75;;;15.95;;
64653;SDS011;51065;48.884;12.598;2022-09-24T15:50:34;25.35;;;14.02;;
64653;SDS011;51065;48.884;12.598;2022-09-24T15:53:21;20.58;;;11.35;;
64653;SDS011;51065;48.884;12.598;2022-09-24T15:55:57;17.60;;;9.35;;
64653;SDS011;51065;48.884;12.598;2022-09-24T15:58:24;19.35;;;9.65;;
64653;SDS011;51065;48.884;12.598;2022-09-24T16:00:51;19.75;;;10.52;;
64653;SDS011;51065;48.884;12.598;2022-09-24T16:03:18;19.23;;;9.60;;
64653;SDS011;51065;48.884;12.598;2022-09-24T16:05:46;18.10;;;10.13;;
64653;SDS011;51065;48.884;12.598;2022-09-24T16:08:12;20.02;;;10.07;;
64653;SDS011;51065;48.884;12.598;2022-09-24T16:10:38;18.65;;;9.80;;
64653;SDS011;51065;48.884;12.598;2022-09-24T16:13:04;15.65;;;8.68;;
64653;SDS011;51065;48.884;12.598;2022-09-24T16:15:31;19.55;;;9.82;;
64653;SDS011;51065;48.884;12.598;2022-09-24T16:17:56;20.05;;;10.27;;
64653;SDS011;51065;48.884;12.598;2022-09-24T16:20:22;18.90;;;10.10;;
64653;SDS011;51065;48.884;12.598;2022-09-24T16:22:47;19.80;;;9.75;;
64653;SDS011;51065;48.884;12.598;2022-09-24T16:25:13;19.20;;;10.60;;
64653;SDS011;51065;48.884;12.598;2022-09-24T16:27:38;20.35;;;10.27;;
64653;SDS011;51065;48.884;12.598;2022-09-24T16:30:05;17.25;;;9.10;;
64653;SDS011;51065;48.884;12.598;2022-09-24T16:32:31;19.98;;;9.95;;
64653;SDS011;51065;48.884;12.598;2022-09-24T16:34:57;20.42;;;9.93;;
64653;SDS011;51065;48.884;12.598;2022-09-24T16:37:23;20.73;;;10.63;;
64653;SDS011;51065;48.884;12.598;2022-09-24T16:39:49;20.25;;;10.50;;
64653;SDS011;51065;48.884;12.598;2022-09-24T16:42:15;20.73;;;10.32;;
64653;SDS011;51065;48.884;12.598;2022-09-24T16:44:40;21.35;;;11.00;;
64653;SDS011;51065;48.884;12.598;2022-09-24T16:47:06;17.83;;;9.65;;
64653;SDS011;51065;48.884;12.598;2022-09-24T16:49:31;20.60;;;9.80;;